Time;durP1;ratioP1;P1;durP2;ratioP2;P2;SDS_P1;SDS_P2;PMS_P1;PMS_P2;Temp;Humidity;BMP_temperature;BMP_pressure;BME280_temperature;BME280_humidity;BME280_pressure;Samples;Min_cycle;Max_cycle;Signal;HPM_P1;HPM_P2
2023/01/14 00:00:25;;;;;;;12.18;1.55;;;8.10;99.90;;;;;;5055763;28;20021;-67
2023/01/14 00:02:51;;;;;;;6.80;1.23;;;8.20;99.90;;;;;;5055773;28;20032;-67
2023/01/14 00:05:17;;;;;;;9.43;1.13;;;8.20;99.90;;;;;;5054981;28;20025;-67
2023/01/14 00:07:42;;;;;;;8.43;1.73;;;8.20;99.90;;;;;;5056258;28;20029;-66
2023/01/14 00:10:08;;;;;;;2.80;0.88;;;8.30;99.90;;;;;;5054463;28;20021;-66
2023/01/14 00:12:34;;;;;;;7.50;1.33;;;8.30;99.90;;;;;;5054345;28;20037;-66
2023/01/14 00:14:59;;;;;;;11.60;1.60;;;8.30;99.90;;;;;;5054371;28;20052;-66
2023/01/14 00:17:25;;;;;;;4.05;1.30;;;8.30;99.90;;;;;;5055094;28;20025;-66
2023/01/14 00:19:50;;;;;;;4.47;0.98;;;8.30;99.90;;;;;;5054350;28;20115;-67
2023/01/14 00:22:16;;;;;;;5.18;0.85;;;8.40;99.90;;;;;;5055403;28;20025;-66
2023/01/14 00:24:42;;;;;;;2.78;1.48;;;8.40;99.90;;;;;;5055059;28;20052;-66
2023/01/14 00:27:07;;;;;;;11.35;1.35;;;8.40;99.90;;;;;;5055353;28;20075;-66
2023/01/14 00:29:34;;;;;;;5.53;1.10;;;8.40;99.90;;;;;;5054179;28;20018;-69
2023/01/14 00:32:04;;;;;;;10.20;1.48;;;8.40;99.90;;;;;;5061068;28;20537;-69
2023/01/14 00:34:32;;;;;;;4.35;1.02;;;8.40;99.90;;;;;;5054148;28;20049;-69
2023/01/14 00:36:58;;;;;;;8.07;0.93;;;8.40;99.90;;;;;;5054133;28;20029;-67
2023/01/14 00:39:24;;;;;;;5.05;1.30;;;8.40;99.90;;;;;;5055711;28;20115;-66
2023/01/14 00:41:50;;;;;;;11.98;2.72;;;8.30;99.90;;;;;;5055521;28;20029;-68
2023/01/14 00:44:17;;;;;;;7.88;1.02;;;8.20;99.90;;;;;;5055583;28;20021;-67
2023/01/14 00:46:43;;;;;;;8.93;1.45;;;8.10;99.90;;;;;;5059095;28;20093;-69
2023/01/14 00:49:18;;;;;;;9.25;1.33;;;8.10;99.90;;;;;;5064419;28;20029;-69
2023/01/14 00:51:44;;;;;;;9.57;1.38;;;8.10;99.90;;;;;;5062483;28;20349;-69
2023/01/14 00:54:10;;;;;;;9.38;1.08;;;8.10;99.90;;;;;;5060133;28;20028;-68
2023/01/14 00:56:35;;;;;;;6.68;1.33;;;8.20;99.90;;;;;;5061509;28;20024;-68
2023/01/14 00:59:01;;;;;;;6.35;1.58;;;8.20;99.90;;;;;;5061593;28;20037;-69
2023/01/14 01:01:26;;;;;;;10.13;1.25;;;8.20;99.90;;;;;;5059558;28;20027;-69
2023/01/14 01:03:55;;;;;;;9.55;1.35;;;8.20;99.90;;;;;;5063030;28;20032;-69
2023/01/14 01:06:22;;;;;;;9.90;1.65;;;8.20;99.90;;;;;;5060339;28;20086;-66
2023/01/14 01:08:49;;;;;;;14.02;1.83;;;8.20;99.90;;;;;;5053470;28;20067;-66
2023/01/14 01:11:15;;;;;;;17.77;1.52;;;8.10;99.90;;;;;;5055070;28;20021;-66
2023/01/14 01:13:41;;;;;;;11.10;1.77;;;8.10;99.90;;;;;;5053189;28;20063;-66
2023/01/14 01:16:29;;;;;;;9.85;1.45;;;8.20;99.90;;;;;;5053967;28;20071;-66
2023/01/14 01:18:56;;;;;;;7.97;1.25;;;8.10;99.90;;;;;;5053192;28;20036;-66
2023/01/14 01:21:23;;;;;;;8.77;1.48;;;8.10;99.90;;;;;;5053051;28;20021;-66
2023/01/14 01:23:49;;;;;;;11.05;1.83;;;8.00;99.90;;;;;;5054071;28;20033;-66
2023/01/14 01:26:20;;;;;;;13.43;1.80;;;8.10;99.90;;;;;;5052983;28;20108;-66
2023/01/14 01:28:50;;;;;;;9.63;1.37;;;8.00;99.90;;;;;;5054786;28;20578;-66
2023/01/14 01:31:16;;;;;;;8.20;1.58;;;7.90;99.90;;;;;;5052923;28;20267;-66
2023/01/14 01:33:42;;;;;;;14.38;2.33;;;7.90;99.90;;;;;;5054037;28;20056;-66
2023/01/14 01:36:16;;;;;;;10.52;2.00;;;7.80;99.90;;;;;;5054186;28;20052;-66
2023/01/14 01:38:43;;;;;;;15.77;2.47;;;7.90;99.90;;;;;;5054319;28;20025;-66
2023/01/14 01:41:20;;;;;;;9.82;1.65;;;7.90;99.90;;;;;;5054297;28;20105;-66
2023/01/14 01:44:07;;;;;;;12.32;2.08;;;7.90;99.90;;;;;;5054208;28;20040;-66
2023/01/14 01:46:34;;;;;;;5.68;1.55;;;7.90;99.90;;;;;;5053821;28;20092;-66
2023/01/14 01:49:10;;;;;;;9.20;1.50;;;7.90;99.90;;;;;;5054242;28;20018;-67
2023/01/14 01:51:50;;;;;;;10.13;1.70;;;7.90;99.90;;;;;;5052593;28;20020;-67
2023/01/14 01:54:19;;;;;;;10.80;1.85;;;7.90;99.90;;;;;;5054248;28;20105;-66
2023/01/14 01:56:46;;;;;;;13.95;1.73;;;7.90;99.90;;;;;;5052696;28;20029;-66
2023/01/14 01:59:15;;;;;;;13.25;2.13;;;7.80;99.90;;;;;;5053476;28;20025;-66
2023/01/14 02:01:42;;;;;;;13.25;2.55;;;7.90;99.90;;;;;;5052445;28;20495;-66
2023/01/14 02:04:10;;;;;;;14.98;1.67;;;7.90;99.90;;;;;;5052212;28;20091;-66
2023/01/14 02:06:36;;;;;;;13.75;2.08;;;7.90;99.90;;;;;;5052397;28;20060;-66
2023/01/14 02:09:03;;;;;;;10.75;1.60;;;7.90;99.90;;;;;;5052328;28;20028;-66
2023/01/14 02:11:44;;;;;;;11.02;2.50;;;8.00;99.90;;;;;;5052602;28;20025;-66
2023/01/14 02:14:32;;;;;;;17.17;2.38;;;7.90;99.90;;;;;;5053078;28;20021;-66
2023/01/14 02:17:04;;;;;;;14.90;2.70;;;8.00;99.90;;;;;;5053342;28;20032;-66
2023/01/14 02:19:48;;;;;;;9.63;2.38;;;8.00;99.90;;;;;;5052794;28;20380;-66
2023/01/14 02:23:06;;;;;;;11.40;1.80;;;8.00;99.90;;;;;;5053094;28;20024;-66
2023/01/14 02:26:08;;;;;;;8.15;2.15;;;8.10;99.90;;;;;;5053613;28;20028;-66
2023/01/14 02:28:53;;;;;;;;;;;8.00;99.90;;;;;;5053036;28;20104;-66
2023/01/14 02:31:40;;;;;;;11.70;1.65;;;8.10;99.90;;;;;;5053390;28;20018;-66
2023/01/14 02:34:20;;;;;;;7.93;1.60;;;8.10;99.90;;;;;;5053366;28;20376;-66
2023/01/14 02:37:24;;;;;;;14.77;1.58;;;8.10;99.90;;;;;;5053226;28;20021;-66
2023/01/14 02:40:15;;;;;;;11.18;1.98;;;8.10;99.90;;;;;;4995307;28;20064;-66
2023/01/14 02:46:14;;;;;;;15.13;1.70;;;8.00;99.90;;;;;;4953755;29;20102;-66
2023/01/14 02:48:40;;;;;;;9.52;2.03;;;8.00;99.90;;;;;;4938285;29;20023;-66
2023/01/14 02:51:06;;;;;;;13.32;1.90;;;8.00;99.90;;;;;;4937086;29;20083;-66
2023/01/14 02:53:32;;;;;;;17.25;1.85;;;8.00;99.90;;;;;;4938214;29;20070;-66
2023/01/14 02:55:58;;;;;;;13.75;2.13;;;8.10;99.90;;;;;;4936938;29;20027;-66
2023/01/14 02:58:59;;;;;;;15.27;2.70;;;8.10;99.90;;;;;;4937208;29;20039;-66
2023/01/14 03:01:25;;;;;;;11.93;1.53;;;8.20;99.90;;;;;;4937605;29;20042;-66
2023/01/14 03:04:10;;;;;;;17.08;1.85;;;8.20;99.90;;;;;;4953482;29;20365;-66
2023/01/14 03:06:35;;;;;;;8.77;1.70;;;8.30;99.90;;;;;;4953090;29;20053;-66
2023/01/14 03:09:20;;;;;;;7.80;1.40;;;8.30;99.90;;;;;;4952963;29;20023;-66
2023/01/14 03:11:55;;;;;;;13.65;1.75;;;8.20;99.90;;;;;;5011031;28;20040;-67
2023/01/14 03:14:38;;;;;;;12.73;1.67;;;8.20;99.90;;;;;;5011577;28;20037;-66
2023/01/14 03:17:33;;;;;;;13.00;1.92;;;8.10;99.90;;;;;;5011299;28;20030;-66
2023/01/14 03:20:14;;;;;;;7.20;1.40;;;8.10;99.90;;;;;;5047579;28;20037;-66
2023/01/14 03:22:42;;;;;;;10.85;1.63;;;8.00;99.90;;;;;;5051387;28;20025;-66
2023/01/14 03:25:10;;;;;;;8.38;2.17;;;8.00;99.90;;;;;;5052566;28;20053;-66
2023/01/14 03:27:37;;;;;;;11.45;1.83;;;8.00;99.90;;;;;;5053411;28;20070;-66
2023/01/14 03:30:10;;;;;;;14.60;1.80;;;7.90;99.90;;;;;;5056574;28;20031;-67
2023/01/14 03:32:43;;;;;;;11.90;2.80;;;8.00;99.90;;;;;;5055768;28;20033;-66
2023/01/14 03:35:16;;;;;;;11.65;2.53;;;7.90;99.90;;;;;;5055349;28;20029;-66
2023/01/14 03:37:47;;;;;;;12.93;1.45;;;7.90;99.90;;;;;;5056456;28;20056;-66
2023/01/14 03:40:15;;;;;;;9.67;2.17;;;8.00;99.90;;;;;;5061646;28;20021;-67
2023/01/14 03:42:50;;;;;;;10.77;1.55;;;7.90;99.90;;;;;;5059147;28;20537;-66
2023/01/14 03:45:22;;;;;;;8.30;1.50;;;8.00;99.90;;;;;;5039943;28;20029;-66
2023/01/14 03:47:48;;;;;;;12.93;1.75;;;7.90;99.90;;;;;;5055899;28;20095;-66
2023/01/14 03:50:19;;;;;;;10.23;1.67;;;7.90;99.90;;;;;;5055897;28;20021;-66
2023/01/14 03:52:56;;;;;;;16.10;2.00;;;7.80;99.90;;;;;;5055846;28;20025;-66
2023/01/14 03:55:53;;;;;;;8.80;1.58;;;7.80;99.90;;;;;;5055250;28;20060;-66
2023/01/14 03:58:40;;;;;;;6.38;1.45;;;7.70;99.90;;;;;;5055707;28;20075;-66
2023/01/14 04:01:15;;;;;;;8.98;2.42;;;7.70;99.90;;;;;;5055687;28;20055;-66
2023/01/14 04:03:42;;;;;;;18.98;1.85;;;7.60;99.90;;;;;;5055532;28;20052;-66
2023/01/14 04:06:08;;;;;;;15.27;1.75;;;7.50;99.90;;;;;;5054768;28;20029;-66
2023/01/14 04:08:34;;;;;;;17.25;1.63;;;7.50;99.90;;;;;;5057194;28;20039;-67
2023/01/14 04:10:59;;;;;;;16.15;2.05;;;7.50;99.90;;;;;;5056753;28;20032;-67
2023/01/14 04:16:09;;;;;;;12.55;1.80;;;7.50;99.90;;;;;;5056633;28;20044;-66
2023/01/14 04:18:35;;;;;;;12.73;1.50;;;7.50;99.90;;;;;;5054525;28;20029;-66
2023/01/14 04:21:00;;;;;;;6.15;1.83;;;7.50;99.90;;;;;;5054654;28;20174;-66
2023/01/14 04:23:26;;;;;;;7.22;1.35;;;7.50;99.90;;;;;;5055498;28;20028;-66
2023/01/14 04:25:59;;;;;;;10.32;2.60;;;7.50;99.90;;;;;;5055835;28;20031;-66
2023/01/14 04:28:25;;;;;;;16.27;1.90;;;7.60;99.90;;;;;;5054659;28;20021;-66
2023/01/14 04:30:51;;;;;;;12.55;2.47;;;7.60;99.90;;;;;;5054592;28;20021;-66
2023/01/14 04:33:17;;;;;;;12.13;1.88;;;7.60;99.90;;;;;;5055084;28;20027;-66
2023/01/14 04:35:49;;;;;;;14.90;2.22;;;7.70;99.90;;;;;;5054341;28;20032;-66
2023/01/14 04:38:16;;;;;;;11.68;2.83;;;7.70;99.90;;;;;;5054701;28;20408;-66
2023/01/14 04:40:42;;;;;;;12.73;1.67;;;7.70;99.90;;;;;;5054565;28;20028;-66
2023/01/14 04:43:08;;;;;;;8.23;1.45;;;7.70;99.90;;;;;;5053957;28;20079;-66
2023/01/14 04:45:37;;;;;;;17.83;1.98;;;7.60;99.90;;;;;;5054684;28;20021;-66
2023/01/14 04:48:03;;;;;;;18.80;2.05;;;7.70;99.90;;;;;;5053969;28;20025;-66
2023/01/14 04:50:32;;;;;;;10.65;1.90;;;7.70;99.90;;;;;;5054523;28;20017;-66
2023/01/14 04:53:11;;;;;;;12.38;2.25;;;7.70;99.90;;;;;;5053769;28;20029;-66
2023/01/14 04:55:39;;;;;;;13.23;1.48;;;7.70;99.90;;;;;;5054518;28;20025;-66
2023/01/14 04:58:06;;;;;;;9.23;2.08;;;7.70;99.90;;;;;;5054533;28;20086;-66
2023/01/14 05:00:32;;;;;;;11.63;2.05;;;7.70;99.90;;;;;;5054369;28;20025;-66
2023/01/14 05:02:57;;;;;;;13.32;1.50;;;7.70;99.90;;;;;;5053519;28;20479;-66
2023/01/14 05:05:23;;;;;;;12.23;2.20;;;7.70;99.90;;;;;;5053948;28;20028;-66
2023/01/14 05:07:48;;;;;;;11.98;1.92;;;7.60;99.90;;;;;;5053878;28;20029;-66
2023/01/14 05:10:15;;;;;;;19.52;2.00;;;7.60;99.90;;;;;;5053560;28;20021;-66
2023/01/14 05:12:55;;;;;;;11.27;1.52;;;7.70;99.90;;;;;;5053488;28;20074;-66
2023/01/14 05:15:23;;;;;;;14.02;2.35;;;7.70;99.90;;;;;;5053709;28;20082;-66
2023/01/14 05:17:48;;;;;;;16.27;1.75;;;7.60;99.90;;;;;;5053190;28;20028;-66
2023/01/14 05:20:14;;;;;;;14.25;1.88;;;7.70;99.90;;;;;;5053154;28;20052;-66
2023/01/14 05:22:39;;;;;;;10.57;2.05;;;7.70;99.90;;;;;;5053929;28;20047;-66
2023/01/14 05:25:05;;;;;;;9.30;1.48;;;7.70;99.90;;;;;;5053010;28;20115;-66
2023/01/14 05:27:33;;;;;;;8.95;2.22;;;7.70;99.90;;;;;;5052983;28;20028;-66
2023/01/14 05:29:58;;;;;;;12.90;1.88;;;7.70;99.90;;;;;;5053002;28;20021;-66
2023/01/14 05:32:24;;;;;;;8.60;1.88;;;7.60;99.90;;;;;;5053277;28;20025;-66
2023/01/14 05:34:49;;;;;;;10.30;1.67;;;7.50;99.90;;;;;;5053231;28;20067;-66
2023/01/14 05:37:15;;;;;;;10.82;2.40;;;7.40;99.90;;;;;;5052897;28;20025;-67
2023/01/14 05:39:41;;;;;;;6.53;1.35;;;7.30;99.90;;;;;;5052739;28;20162;-66
2023/01/14 05:47:34;;;;;;;17.35;1.67;;;6.80;99.90;;;;;;5054200;28;20104;-66
2023/01/14 05:50:00;;;;;;;8.23;1.60;;;6.90;99.90;;;;;;5053399;28;20067;-66
2023/01/14 05:52:25;;;;;;;19.27;2.10;;;7.00;99.90;;;;;;5053595;28;20032;-66
2023/01/14 05:54:51;;;;;;;10.95;1.45;;;7.10;99.90;;;;;;5053055;28;20029;-66
2023/01/14 05:57:16;;;;;;;12.10;1.83;;;7.30;99.90;;;;;;5053701;28;20025;-66
2023/01/14 05:59:42;;;;;;;10.05;1.55;;;7.30;99.90;;;;;;5053696;28;20104;-66
2023/01/14 06:07:37;;;;;;;13.88;1.40;;;7.40;99.90;;;;;;5066655;22;20053;-69
2023/01/14 06:10:03;;;;;;;16.00;2.10;;;7.50;99.90;;;;;;5032786;28;20026;-69
2023/01/14 06:15:13;;;;;;;17.10;2.08;;;7.50;99.90;;;;;;5034130;28;20155;-69
2023/01/14 06:17:45;;;;;;;7.88;1.48;;;7.50;99.90;;;;;;5032505;28;20022;-69
2023/01/14 06:20:11;;;;;;;13.82;1.70;;;7.60;99.90;;;;;;5034219;28;20017;-69
2023/01/14 06:22:36;;;;;;;10.45;2.05;;;7.60;99.90;;;;;;5033969;28;20033;-69
2023/01/14 06:25:02;;;;;;;10.20;1.67;;;7.50;99.90;;;;;;5036950;28;20025;-69
2023/01/14 06:27:27;;;;;;;12.45;1.48;;;7.30;99.90;;;;;;5033691;28;20027;-68
2023/01/14 06:29:53;;;;;;;10.20;1.77;;;7.20;99.90;;;;;;5036163;28;20028;-69
2023/01/14 06:32:19;;;;;;;8.15;1.17;;;7.00;99.90;;;;;;5050719;28;20068;-69
2023/01/14 06:34:44;;;;;;;6.15;1.15;;;7.00;99.90;;;;;;5032955;28;20056;-69
2023/01/14 06:37:10;;;;;;;7.88;1.60;;;7.10;99.90;;;;;;5032023;28;20036;-69
2023/01/14 06:39:35;;;;;;;7.47;1.60;;;7.30;99.90;;;;;;5032073;28;20049;-69
2023/01/14 06:42:01;;;;;;;8.23;1.17;;;7.30;99.90;;;;;;5033825;28;20032;-69
2023/01/14 06:44:27;;;;;;;13.43;2.00;;;7.30;99.90;;;;;;5049289;28;20036;-69
2023/01/14 06:46:52;;;;;;;9.50;2.55;;;7.40;99.90;;;;;;5031792;28;20029;-69
2023/01/14 06:49:18;;;;;;;8.68;1.67;;;7.20;99.90;;;;;;5021891;28;20045;-69
2023/01/14 06:51:43;;;;;;;8.63;1.67;;;7.20;99.90;;;;;;5012414;28;20085;-69
2023/01/14 06:54:10;;;;;;;18.02;1.95;;;7.30;99.90;;;;;;5012612;28;20033;-69
2023/01/14 06:56:35;;;;;;;7.20;1.92;;;7.30;99.90;;;;;;5013506;28;20025;-69
2023/01/14 06:59:01;;;;;;;6.90;1.77;;;7.30;99.90;;;;;;5013505;28;20026;-69
2023/01/14 07:01:26;;;;;;;8.55;1.45;;;7.30;99.90;;;;;;5018741;28;20034;-68
2023/01/14 07:03:52;;;;;;;6.85;1.35;;;7.40;99.90;;;;;;5015970;28;20072;-69
2023/01/14 07:06:17;;;;;;;6.80;1.75;;;7.20;99.90;;;;;;5016382;28;20094;-69
2023/01/14 07:08:44;;;;;;;18.75;2.25;;;7.00;99.90;;;;;;5017102;28;20022;-69
2023/01/14 07:11:12;;;;;;;12.15;2.03;;;7.10;99.90;;;;;;5017223;28;20018;-69
2023/01/14 07:13:37;;;;;;;13.82;2.45;;;7.10;99.90;;;;;;5016963;28;20022;-69
2023/01/14 07:16:04;;;;;;;16.40;1.92;;;6.90;99.90;;;;;;5016215;28;20037;-68
2023/01/14 07:18:29;;;;;;;9.95;1.95;;;6.80;99.90;;;;;;5015909;28;20088;-68
2023/01/14 07:20:57;;;;;;;6.95;1.20;;;7.00;99.90;;;;;;5015760;28;20030;-68
2023/01/14 07:23:23;;;;;;;10.77;2.50;;;7.10;99.90;;;;;;5016861;28;20104;-68
2023/01/14 07:25:48;;;;;;;13.00;1.80;;;7.10;99.90;;;;;;5017173;28;20067;-68
2023/01/14 07:28:14;;;;;;;15.38;2.58;;;7.10;99.90;;;;;;5015659;28;20026;-68
2023/01/14 07:30:39;;;;;;;16.30;2.40;;;7.20;99.90;;;;;;5015875;28;20018;-68
2023/01/14 07:33:05;;;;;;;13.60;2.20;;;7.10;99.90;;;;;;5017474;28;20084;-68
2023/01/14 07:35:31;;;;;;;11.48;1.90;;;7.00;99.90;;;;;;5015491;28;20040;-68
2023/01/14 07:37:58;;;;;;;16.08;1.98;;;6.90;99.90;;;;;;5016261;28;20026;-68
2023/01/14 07:40:24;;;;;;;8.30;1.80;;;7.10;99.90;;;;;;5015622;28;20084;-69
2023/01/14 07:42:58;;;;;;;10.95;2.47;;;7.10;99.90;;;;;;5016572;28;20058;-68
2023/01/14 07:45:25;;;;;;;12.15;2.03;;;7.20;99.90;;;;;;5015385;28;20085;-68
2023/01/14 07:47:50;;;;;;;14.38;1.65;;;7.20;99.90;;;;;;5016806;28;20030;-68
2023/01/14 07:50:17;;;;;;;5.72;1.90;;;7.20;99.90;;;;;;5017161;28;20025;-68
2023/01/14 07:52:43;;;;;;;9.48;1.83;;;7.10;99.90;;;;;;5015212;28;20030;-68
2023/01/14 07:55:08;;;;;;;6.78;2.45;;;7.10;99.90;;;;;;5016060;28;20121;-68
2023/01/14 07:57:34;;;;;;;19.83;3.45;;;7.10;99.90;;;;;;5016374;28;20030;-68
2023/01/14 07:59:59;;;;;;;13.85;2.80;;;7.10;99.90;;;;;;5015052;28;20064;-69
2023/01/14 08:02:25;;;;;;;15.85;2.30;;;7.10;99.90;;;;;;5015219;28;20117;-68
2023/01/14 08:04:50;;;;;;;21.33;3.28;;;7.20;99.90;;;;;;5015858;28;20018;-68
2023/01/14 08:07:16;;;;;;;16.25;2.22;;;7.10;99.90;;;;;;5020990;28;20037;-68
2023/01/14 08:09:41;;;;;;;13.93;2.35;;;7.10;99.90;;;;;;5015426;28;20036;-68
2023/01/14 08:12:07;;;;;;;18.30;3.60;;;7.00;99.90;;;;;;5015690;28;20017;-68
2023/01/14 08:14:32;;;;;;;11.27;2.55;;;7.10;99.90;;;;;;5014234;28;20022;-68
2023/01/14 08:17:02;;;;;;;16.52;2.25;;;7.00;99.90;;;;;;5014956;28;20018;-68
2023/01/14 08:19:28;;;;;;;14.73;2.58;;;7.10;99.90;;;;;;5014991;28;20026;-68
2023/01/14 08:21:53;;;;;;;20.58;2.45;;;7.10;99.90;;;;;;5016008;28;20034;-68
2023/01/14 08:24:19;;;;;;;16.38;2.75;;;7.10;99.90;;;;;;5014580;28;20492;-69
2023/01/14 08:26:44;;;;;;;21.35;3.50;;;7.30;99.90;;;;;;5016060;28;20022;-68
2023/01/14 08:29:10;;;;;;;13.50;2.88;;;7.10;99.90;;;;;;5014513;28;20022;-69
2023/01/14 08:31:35;;;;;;;12.93;2.55;;;7.10;99.90;;;;;;5014755;28;20065;-68
2023/01/14 08:34:01;;;;;;;9.50;2.38;;;7.10;99.90;;;;;;5014638;28;20117;-68
2023/01/14 08:36:26;;;;;;;13.95;2.72;;;7.30;99.90;;;;;;5015954;28;20037;-69
2023/01/14 08:38:52;;;;;;;13.77;3.25;;;7.20;99.90;;;;;;5015636;28;20049;-68
2023/01/14 08:41:19;;;;;;;18.50;3.08;;;7.30;99.90;;;;;;5015663;28;20037;-68
2023/01/14 08:43:48;;;;;;;19.15;3.42;;;7.20;99.90;;;;;;5015529;28;20026;-68
2023/01/14 08:46:13;;;;;;;15.45;2.88;;;7.20;99.90;;;;;;5014211;28;20378;-71
2023/01/14 08:48:39;;;;;;;14.90;3.13;;;7.10;99.90;;;;;;5014066;28;20077;-69
2023/01/14 08:51:07;;;;;;;18.42;3.13;;;7.10;99.90;;;;;;5013991;28;20026;-68
2023/01/14 08:53:37;;;;;;;18.27;3.05;;;7.10;99.90;;;;;;5013977;28;20034;-68
2023/01/14 08:56:04;;;;;;;17.02;3.33;;;7.00;99.90;;;;;;5014400;28;20034;-68
2023/01/14 08:58:30;;;;;;;10.43;2.80;;;7.10;99.90;;;;;;5015038;28;20036;-68
2023/01/14 09:01:02;;;;;;;11.02;2.25;;;7.10;99.90;;;;;;5013996;28;20464;-68
2023/01/14 09:03:30;;;;;;;17.65;3.13;;;7.20;99.90;;;;;;5013659;28;20053;-68
2023/01/14 09:06:00;;;;;;;24.02;3.83;;;7.30;99.90;;;;;;5015139;28;20085;-68
2023/01/14 09:17:06;;;;;;;18.35;2.42;;;7.60;99.90;;;;;;5015141;28;20036;-68
2023/01/14 09:19:49;;;;;;;14.40;2.72;;;7.60;99.90;;;;;;5014231;28;20053;-68
2023/01/14 09:22:19;;;;;;;19.52;2.58;;;7.60;99.90;;;;;;5014674;28;20029;-68
2023/01/14 09:24:45;;;;;;;15.23;2.95;;;7.60;99.90;;;;;;5014309;28;20149;-68
2023/01/14 09:27:11;;;;;;;13.32;2.72;;;7.60;99.90;;;;;;5013403;28;20042;-68
2023/01/14 09:29:36;;;;;;;16.92;2.40;;;7.50;99.90;;;;;;5014654;28;20028;-68
2023/01/14 09:32:02;;;;;;;8.65;2.03;;;7.40;99.90;;;;;;5013859;28;20393;-68
2023/01/14 09:34:27;;;;;;;16.17;3.20;;;7.40;99.90;;;;;;5013794;28;20026;-68
2023/01/14 09:36:56;;;;;;;14.07;2.88;;;7.40;99.90;;;;;;5013250;28;20493;-68
2023/01/14 09:39:21;;;;;;;6.15;2.30;;;7.40;99.90;;;;;;5014606;28;20025;-68
2023/01/14 09:41:53;;;;;;;6.47;1.85;;;7.40;99.90;;;;;;5013210;28;20048;-68
2023/01/14 09:44:20;;;;;;;11.43;2.35;;;7.50;99.90;;;;;;5014418;28;20026;-68
2023/01/14 09:46:46;;;;;;;15.50;2.55;;;7.40;99.90;;;;;;5013050;28;20021;-68
2023/01/14 09:49:16;;;;;;;11.43;2.05;;;7.50;99.90;;;;;;5014271;28;20059;-68
2023/01/14 09:51:52;;;;;;;3.50;1.35;;;7.50;99.90;;;;;;5014512;28;20018;-68
2023/01/14 09:54:39;;;;;;;11.05;2.80;;;7.50;99.90;;;;;;5013060;28;20036;-68
2023/01/14 09:57:23;;;;;;;14.95;1.92;;;7.50;99.90;;;;;;5013662;28;20050;-68
2023/01/14 10:00:22;;;;;;;7.85;1.77;;;7.50;99.90;;;;;;5014533;28;20076;-70
2023/01/14 10:03:06;;;;;;;6.70;2.08;;;7.60;99.90;;;;;;5012854;28;20117;-71
2023/01/14 10:05:33;;;;;;;7.80;1.90;;;7.60;99.90;;;;;;5014561;28;20018;-71
2023/01/14 10:08:02;;;;;;;6.72;1.33;;;7.70;99.90;;;;;;5014154;28;20045;-71
2023/01/14 10:10:38;;;;;;;10.05;2.03;;;7.70;99.90;;;;;;5012721;28;20018;-69
2023/01/14 10:13:14;;;;;;;7.65;1.60;;;7.80;99.90;;;;;;5012802;28;20025;-68
2023/01/14 10:15:47;;;;;;;10.38;1.95;;;7.80;99.90;;;;;;5012827;28;20049;-68
2023/01/14 10:18:31;;;;;;;10.00;2.53;;;7.80;99.90;;;;;;5014958;28;20034;-68
2023/01/14 10:21:10;;;;;;;11.27;2.10;;;7.70;99.90;;;;;;5014364;28;20120;-68
2023/01/14 10:23:40;;;;;;;6.53;1.70;;;7.70;99.90;;;;;;5013802;28;20049;-68
2023/01/14 10:26:20;;;;;;;14.80;1.88;;;7.60;99.90;;;;;;5012905;28;20026;-68
2023/01/14 10:28:52;;;;;;;8.45;2.13;;;7.60;99.90;;;;;;5014025;28;20024;-68
2023/01/14 10:31:24;;;;;;;;;;;7.60;99.90;;;;;;5012951;28;20033;-68
2023/01/14 10:33:50;;;;;;;5.18;2.22;;;7.60;99.90;;;;;;5013980;28;19956;-68
2023/01/14 10:36:21;;;;;;;10.68;2.00;;;7.60;99.90;;;;;;5013346;28;20034;-68
2023/01/14 10:38:47;;;;;;;8.43;1.95;;;7.60;99.90;;;;;;5013512;28;20061;-68
2023/01/14 10:41:14;;;;;;;6.35;2.05;;;7.70;99.90;;;;;;5012392;28;20064;-68
2023/01/14 10:43:42;;;;;;;6.10;2.00;;;7.70;99.90;;;;;;5012735;28;20091;-68
2023/01/14 10:46:17;;;;;;;4.00;1.50;;;7.70;99.90;;;;;;5013601;28;20030;-68
2023/01/14 10:48:50;;;;;;;7.63;1.95;;;7.80;99.90;;;;;;5013526;28;20049;-69
2023/01/14 10:51:47;;;;;;;10.60;2.85;;;7.90;99.90;;;;;;5012158;28;20026;-69
2023/01/14 10:54:18;;;;;;;8.38;1.42;;;7.90;99.90;;;;;;5013480;28;20025;-69
2023/01/14 10:56:54;;;;;;;7.60;1.77;;;7.90;99.90;;;;;;5013990;28;20060;-69
2023/01/14 10:59:49;;;;;;;9.07;1.85;;;7.90;99.90;;;;;;5012098;28;20057;-69
2023/01/14 11:02:44;;;;;;;3.17;1.00;;;7.90;99.90;;;;;;5012817;28;20038;-69
2023/01/14 11:05:25;;;;;;;2.00;1.00;;;7.90;99.90;;;;;;5013647;28;20384;-69
2023/01/14 11:07:53;;;;;;;0.90;0.75;;;8.00;99.90;;;;;;5012354;28;20034;-69
2023/01/14 11:10:27;;;;;;;4.65;1.08;;;7.90;99.90;;;;;;5011969;28;20030;-69
2023/01/14 11:13:12;;;;;;;2.85;0.68;;;7.90;99.90;;;;;;5013316;28;20040;-69
2023/01/14 11:15:41;;;;;;;6.45;1.20;;;8.00;99.90;;;;;;5012179;28;20033;-68
2023/01/14 11:18:18;;;;;;;2.60;1.00;;;8.00;99.90;;;;;;5012206;28;20116;-68
2023/01/14 11:20:59;;;;;;;2.90;1.20;;;8.10;99.90;;;;;;5013222;28;20022;-69
2023/01/14 11:23:31;;;;;;;4.82;1.60;;;8.00;99.90;;;;;;5013308;28;20029;-69
2023/01/14 11:26:07;;;;;;;4.93;1.40;;;8.00;99.90;;;;;;5013088;28;20022;-68
2023/01/14 11:28:36;;;;;;;6.10;1.20;;;8.10;99.90;;;;;;5012994;28;20100;-68
2023/01/14 11:31:02;;;;;;;5.03;2.05;;;8.00;99.90;;;;;;5012923;28;20029;-68
2023/01/14 11:33:28;;;;;;;3.67;1.50;;;8.10;99.90;;;;;;5012039;28;20033;-69
2023/01/14 11:35:57;;;;;;;4.35;1.95;;;8.10;99.90;;;;;;5011983;28;20076;-69
2023/01/14 11:38:25;;;;;;;12.50;2.45;;;8.00;99.90;;;;;;5012054;28;20041;-69
2023/01/14 11:43:58;;;;;;;7.90;2.90;;;7.90;99.90;;;;;;5013575;28;20092;-69
2023/01/14 11:46:24;;;;;;;5.32;3.03;;;7.80;99.90;;;;;;5011603;28;20029;-69
2023/01/14 11:49:15;;;;;;;5.53;2.78;;;7.80;99.90;;;;;;5013836;28;20018;-69
2023/01/14 11:51:41;;;;;;;11.90;3.50;;;7.80;99.90;;;;;;5016499;28;20101;-69
2023/01/14 11:54:19;;;;;;;14.75;4.35;;;7.70;99.90;;;;;;5015206;28;20057;-69
2023/01/14 11:56:46;;;;;;;5.45;3.22;;;7.70;99.90;;;;;;5015387;28;20030;-69
2023/01/14 11:59:26;;;;;;;5.95;3.30;;;7.80;99.90;;;;;;5015179;28;20033;-69
2023/01/14 12:02:11;;;;;;;5.95;3.05;;;7.90;99.90;;;;;;5016505;28;20068;-69
2023/01/14 12:05:25;;;;;;;3.47;2.38;;;7.90;99.90;;;;;;5015337;28;20034;-69
2023/01/14 12:07:55;;;;;;;7.05;3.65;;;7.90;99.90;;;;;;5046181;22;20073;-68
2023/01/14 12:10:41;;;;;;;5.35;2.80;;;8.00;99.90;;;;;;5034526;28;20060;-68
2023/01/14 12:19:05;;;;;;;5.95;2.60;;;8.00;99.90;;;;;;5036015;28;20036;-67
2023/01/14 12:21:39;;;;;;;8.80;2.85;;;8.00;99.90;;;;;;5034580;28;20036;-67
2023/01/14 12:24:14;;;;;;;8.00;2.80;;;8.00;99.90;;;;;;5034231;28;20132;-67
2023/01/14 12:26:44;;;;;;;13.52;2.72;;;7.90;99.90;;;;;;5050743;28;20017;-67
2023/01/14 12:29:34;;;;;;;13.90;3.05;;;7.90;99.90;;;;;;5051619;28;20156;-67
2023/01/14 12:32:10;;;;;;;8.18;2.38;;;7.90;99.90;;;;;;5033870;28;20057;-67
2023/01/14 12:34:59;;;;;;;4.57;2.20;;;7.90;99.90;;;;;;5034884;28;20026;-68
2023/01/14 12:37:39;;;;;;;8.30;2.30;;;7.90;99.90;;;;;;5035136;28;20390;-67
2023/01/14 12:46:11;;;;;;;6.65;2.70;;;7.90;99.90;;;;;;5035692;28;20052;-67
2023/01/14 12:48:37;;;;;;;3.30;2.17;;;7.90;99.90;;;;;;5050353;28;20112;-67
2023/01/14 12:51:08;;;;;;;4.68;2.42;;;7.90;99.90;;;;;;5033697;28;20022;-67
2023/01/14 12:53:48;;;;;;;12.63;2.58;;;7.90;99.90;;;;;;5034349;28;20025;-67
2023/01/14 12:56:34;;;;;;;15.77;2.95;;;7.80;99.90;;;;;;5033672;28;20120;-68
2023/01/14 12:59:07;;;;;;;9.50;2.50;;;7.80;99.90;;;;;;5050070;28;20029;-67
2023/01/14 13:01:42;;;;;;;6.20;2.30;;;7.80;99.90;;;;;;5033447;28;20140;-67
2023/01/14 13:04:34;;;;;;;4.63;2.13;;;7.80;99.90;;;;;;5034627;28;20025;-68
2023/01/14 13:07:03;;;;;;;6.75;2.22;;;7.80;99.90;;;;;;5050496;28;20058;-68
2023/01/14 13:09:44;;;;;;;7.20;2.72;;;7.80;99.90;;;;;;5033674;28;20088;-68
2023/01/14 13:12:30;;;;;;;7.90;2.55;;;7.80;99.90;;;;;;5035151;28;20440;-68
2023/01/14 13:15:19;;;;;;;6.97;2.35;;;7.80;99.90;;;;;;5033645;28;20396;-68
2023/01/14 13:17:54;;;;;;;10.15;2.80;;;7.90;99.90;;;;;;5025171;28;20032;-68
2023/01/14 13:20:29;;;;;;;4.25;2.03;;;7.80;99.90;;;;;;5033231;28;20104;-68
2023/01/14 13:22:56;;;;;;;6.07;1.75;;;7.80;99.90;;;;;;5034350;28;20055;-68
2023/01/14 13:25:54;;;;;;;8.27;2.33;;;7.80;99.90;;;;;;5034488;28;20095;-68
2023/01/14 13:28:19;;;;;;;3.33;1.70;;;7.80;99.90;;;;;;4976519;28;20041;-68
2023/01/14 13:31:12;;;;;;;7.13;2.03;;;7.90;99.90;;;;;;4976409;28;20022;-67
2023/01/14 13:33:39;;;;;;;3.75;1.63;;;7.90;99.90;;;;;;4976833;28;20030;-67
2023/01/14 13:36:14;;;;;;;5.30;1.63;;;7.80;99.90;;;;;;4976393;28;20022;-67
2023/01/14 13:39:02;;;;;;;8.80;2.20;;;7.80;99.90;;;;;;4976582;28;20049;-67
2023/01/14 13:41:38;;;;;;;4.88;2.05;;;7.90;99.90;;;;;;4976342;28;20086;-67
2023/01/14 13:44:05;;;;;;;3.08;1.60;;;7.90;99.90;;;;;;4992887;28;20042;-68
2023/01/14 13:46:37;;;;;;;7.85;1.88;;;7.80;99.90;;;;;;4992788;28;20033;-68
2023/01/14 13:49:04;;;;;;;;;;;7.90;99.90;;;;;;4977108;28;20067;-67
2023/01/14 13:51:34;;;;;;;2.97;1.90;;;7.80;99.90;;;;;;4992424;28;19910;-67
2023/01/14 13:54:05;;;;;;;6.07;2.40;;;7.80;99.90;;;;;;4975984;28;20026;-67
2023/01/14 13:56:32;;;;;;;;;;;7.80;99.90;;;;;;4976402;28;20022;-67